createdAt,value
2022-09-07T00:01:06.026Z,13.86
2022-09-07T00:03:33.459Z,13.86
2022-09-07T00:06:06.410Z,13.81
2022-09-07T00:08:33.876Z,13.84
2022-09-07T00:11:02.857Z,13.84
2022-09-07T00:13:33.707Z,13.70
2022-09-07T00:16:07.567Z,13.61
2022-09-07T00:18:35.354Z,13.62
2022-09-07T00:21:05.786Z,13.78
2022-09-07T00:23:35.636Z,13.74
2022-09-07T00:26:05.374Z,13.69
2022-09-07T00:28:33.495Z,13.76
2022-09-07T00:31:01.884Z,13.73
2022-09-07T00:33:35.206Z,13.71
2022-09-07T00:36:03.634Z,13.83
2022-09-07T00:38:30.948Z,13.86
2022-09-07T00:40:58.523Z,13.84
2022-09-07T00:43:34.582Z,13.69
2022-09-07T00:46:04.069Z,13.70
2022-09-07T00:48:38.833Z,13.72
2022-09-07T00:51:11.927Z,13.73
2022-09-07T00:53:43.266Z,13.74
2022-09-07T00:56:12.974Z,13.86
2022-09-07T00:58:43.021Z,13.87
2022-09-07T01:01:10.249Z,13.82
2022-09-07T01:03:41.363Z,13.72
2022-09-07T01:06:16.314Z,13.66
2022-09-07T01:08:45.998Z,13.58
2022-09-07T01:11:13.353Z,13.69
2022-09-07T01:13:47.900Z,13.71
2022-09-07T01:16:24.953Z,13.68
2022-09-07T01:19:16.559Z,13.61
2022-09-07T01:21:54.592Z,13.74
2022-09-07T01:24:42.544Z,13.70
2022-09-07T01:27:47.659Z,13.61
2022-09-07T01:30:16.851Z,13.55
2022-09-07T01:33:01.097Z,13.33
2022-09-07T01:35:35.919Z,13.23
2022-09-07T01:38:12.814Z,13.25
2022-09-07T01:40:49.171Z,13.27
2022-09-07T01:43:33.768Z,13.34
2022-09-07T01:46:05.762Z,13.19
2022-09-07T01:48:36.719Z,13.18
2022-09-07T01:51:04.366Z,13.04
2022-09-07T01:53:37.078Z,13.09
2022-09-07T01:56:08.255Z,12.96
2022-09-07T01:58:43.427Z,13.05
2022-09-07T02:01:13.791Z,13.08
2022-09-07T02:03:46.164Z,13.11
2022-09-07T02:06:22.670Z,13.06
2022-09-07T02:08:57.139Z,13.08
2022-09-07T02:11:33.028Z,13.10
2022-09-07T02:14:07.724Z,12.94
2022-09-07T02:16:41.278Z,12.81
2022-09-07T02:19:14.766Z,12.83
2022-09-07T02:21:48.399Z,12.86
2022-09-07T02:24:21.782Z,12.82
2022-09-07T02:26:52.022Z,12.79
2022-09-07T02:29:20.930Z,12.73
2022-09-07T02:31:48.335Z,12.56
2022-09-07T02:34:15.965Z,12.41
2022-09-07T02:36:47.846Z,12.45
2022-09-07T02:39:17.327Z,12.45
2022-09-07T02:41:45.571Z,12.40
2022-09-07T02:44:15.687Z,12.44
2022-09-07T02:46:58.637Z,12.40
2022-09-07T02:49:44.088Z,12.26
2022-09-07T02:52:22.572Z,12.10
2022-09-07T02:55:05.766Z,12.07
2022-09-07T02:57:44.747Z,11.94
2022-09-07T03:00:16.270Z,11.95
2022-09-07T03:02:56.813Z,12.09
2022-09-07T03:05:30.480Z,12.03
2022-09-07T03:08:05.123Z,12.13
2022-09-07T03:10:33.841Z,12.20
2022-09-07T03:13:00.974Z,12.22
2022-09-07T03:15:33.614Z,12.24
2022-09-07T03:18:03.322Z,12.16
2022-09-07T03:20:31.854Z,12.02
2022-09-07T03:23:00.515Z,12.05
2022-09-07T03:25:27.618Z,12.11
2022-09-07T03:27:55.718Z,12.09
2022-09-07T03:30:23.514Z,11.91
2022-09-07T03:32:53.050Z,12.04
2022-09-07T03:35:21.843Z,11.89
2022-09-07T03:37:50.473Z,11.78
2022-09-07T03:40:19.919Z,11.88
2022-09-07T03:42:49.334Z,11.88
2022-09-07T03:45:17.745Z,11.89
2022-09-07T03:47:53.914Z,11.82
2022-09-07T03:50:22.427Z,11.87
2022-09-07T03:52:52.853Z,11.88
2022-09-07T03:55:21.199Z,11.99
2022-09-07T03:57:49.815Z,11.93
2022-09-07T04:00:17.656Z,12.08
2022-09-07T04:02:45.380Z,11.80
2022-09-07T04:05:12.670Z,11.84
2022-09-07T04:07:43.227Z,11.82
2022-09-07T04:10:13.595Z,11.68
2022-09-07T04:12:41.847Z,11.53
2022-09-07T04:15:11.476Z,11.56
2022-09-07T04:17:38.903Z,11.38
2022-09-07T04:20:07.772Z,11.44
2022-09-07T04:22:35.881Z,11.56
2022-09-07T04:25:08.881Z,11.61
2022-09-07T04:27:35.820Z,11.65
2022-09-07T04:30:04.848Z,11.59
2022-09-07T04:32:32.869Z,11.67
2022-09-07T04:35:01.536Z,11.56
2022-09-07T04:37:29.816Z,11.68
2022-09-07T04:40:02.929Z,11.64
2022-09-07T04:42:31.709Z,11.77
2022-09-07T04:45:01.806Z,11.55
2022-09-07T04:47:29.176Z,11.59
2022-09-07T04:49:56.498Z,11.60
2022-09-07T04:52:23.769Z,11.59
2022-09-07T04:54:53.437Z,11.77
2022-09-07T04:57:20.506Z,11.74
2022-09-07T04:59:50.324Z,11.82
2022-09-07T05:02:18.740Z,11.82
2022-09-07T05:04:45.867Z,11.91
2022-09-07T05:07:13.004Z,11.96
2022-09-07T05:09:39.954Z,11.89
2022-09-07T05:12:07.907Z,11.94
2022-09-07T05:14:35.570Z,12.01
2022-09-07T05:17:05.795Z,11.99
2022-09-07T05:19:32.677Z,12.03
2022-09-07T05:22:00.195Z,12.04
2022-09-07T05:24:27.672Z,12.10
2022-09-07T05:27:00.314Z,12.22
2022-09-07T05:32:22.380Z,12.45
2022-09-07T05:34:55.553Z,12.49
2022-09-07T05:37:23.658Z,12.65
2022-09-07T05:39:53.005Z,12.75
2022-09-07T05:42:22.053Z,12.97
2022-09-07T05:44:49.342Z,13.06
2022-09-07T05:47:20.735Z,13.18
2022-09-07T05:49:48.373Z,13.28
2022-09-07T05:52:18.199Z,13.34
2022-09-07T05:54:49.061Z,13.47
2022-09-07T05:57:17.099Z,13.55
2022-09-07T05:59:44.762Z,13.58
2022-09-07T06:02:14.959Z,13.65
2022-09-07T06:04:43.387Z,13.85
2022-09-07T06:07:28.520Z,13.91
2022-09-07T06:12:49.223Z,14.07
2022-09-07T06:15:16.754Z,14.08
2022-09-07T06:17:44.772Z,13.97
2022-09-07T06:20:15.898Z,14.06
2022-09-07T06:22:44.910Z,14.21
2022-09-07T06:25:12.239Z,14.27
2022-09-07T06:27:41.947Z,14.54
2022-09-07T06:30:11.001Z,14.86
2022-09-07T06:35:15.709Z,14.78
2022-09-07T06:37:43.254Z,15.10
2022-09-07T06:40:11.471Z,15.09
2022-09-07T06:42:41.717Z,15.10
2022-09-07T06:45:10.001Z,15.15
2022-09-07T06:47:37.191Z,15.42
2022-09-07T06:50:06.614Z,15.82
2022-09-07T06:55:28.544Z,16.76
2022-09-07T06:57:55.575Z,17.16
2022-09-07T07:00:25.991Z,17.58
2022-09-07T07:02:53.316Z,17.97
2022-09-07T07:05:21.424Z,18.12
2022-09-07T07:07:49.963Z,18.07
2022-09-07T07:10:24.563Z,18.37
2022-09-07T07:12:52.663Z,18.62
2022-09-07T07:15:21.774Z,18.84
2022-09-07T07:17:58.022Z,19.03
2022-09-07T07:20:30.394Z,19.23
2022-09-07T07:23:01.044Z,19.43
2022-09-07T07:25:29.317Z,19.71
2022-09-07T07:30:45.675Z,19.18
2022-09-07T07:33:12.884Z,19.40
2022-09-07T07:35:42.705Z,19.69
2022-09-07T07:43:46.738Z,19.86
2022-09-07T07:46:16.331Z,19.95
2022-09-07T07:48:47.974Z,19.87
2022-09-07T07:51:15.956Z,19.82
2022-09-07T07:53:48.465Z,19.67
2022-09-07T07:56:20.995Z,19.27
2022-09-07T07:58:52.470Z,19.20
2022-09-07T08:01:21.629Z,18.77
2022-09-07T08:03:49.724Z,18.65
2022-09-07T08:06:20.078Z,18.74
2022-09-07T08:08:56.138Z,18.54
2022-09-07T08:11:25.087Z,18.52
2022-09-07T08:13:56.137Z,18.66
2022-09-07T08:16:23.543Z,18.97
2022-09-07T08:18:53.056Z,19.13
2022-09-07T08:21:21.539Z,19.26
2022-09-07T08:23:50.735Z,19.35
2022-09-07T08:26:17.608Z,19.58
2022-09-07T08:28:46.288Z,19.74
2022-09-07T08:31:15.640Z,20.08
2022-09-07T08:33:43.355Z,20.38
2022-09-07T08:36:13.994Z,20.63
2022-09-07T08:38:42.759Z,20.49
2022-09-07T08:41:43.458Z,20.85
2022-09-07T08:44:19.159Z,21.12
2022-09-07T08:46:50.009Z,21.55
2022-09-07T08:49:23.582Z,21.68
2022-09-07T08:51:58.313Z,22.02
2022-09-07T08:54:29.828Z,22.21
2022-09-07T09:00:01.885Z,22.49
2022-09-07T09:02:32.548Z,22.68
2022-09-07T09:05:22.792Z,22.71
2022-09-07T09:08:00.432Z,23.01
2022-09-07T09:10:38.277Z,23.05
2022-09-07T09:13:17.633Z,23.33
2022-09-07T09:15:56.006Z,23.49
2022-09-07T09:18:42.632Z,23.47
2022-09-07T09:21:14.740Z,23.64
2022-09-07T09:23:46.915Z,23.83
2022-09-07T09:26:20.010Z,23.95
2022-09-07T09:28:47.367Z,24.04
2022-09-07T09:31:19.210Z,23.88
2022-09-07T09:34:12.040Z,24.13
2022-09-07T09:36:47.871Z,24.23
2022-09-07T09:39:32.466Z,24.05
2022-09-07T09:42:16.829Z,23.50
2022-09-07T09:44:44.514Z,23.66
2022-09-07T09:47:48.403Z,23.12
2022-09-07T09:53:25.439Z,23.28
2022-09-07T09:55:54.108Z,23.47
2022-09-07T10:01:29.051Z,23.70
2022-09-07T10:04:20.321Z,23.83
2022-09-07T10:06:51.277Z,24.02
2022-09-07T10:09:22.201Z,23.88
2022-09-07T10:12:10.324Z,23.93
2022-09-07T10:14:45.070Z,24.10
2022-09-07T10:17:15.593Z,24.30
2022-09-07T10:19:44.059Z,24.03
2022-09-07T10:22:33.296Z,24.00
2022-09-07T10:25:01.273Z,23.73
2022-09-07T10:27:34.713Z,24.15
2022-09-07T10:30:07.058Z,24.42
2022-09-07T10:32:46.573Z,24.48
2022-09-07T10:35:27.369Z,24.60
2022-09-07T10:38:11.455Z,24.41
2022-09-07T10:40:42.931Z,24.21
2022-09-07T10:43:21.842Z,24.40
2022-09-07T10:46:02.457Z,24.89
2022-09-07T10:48:36.500Z,25.33
2022-09-07T10:51:14.460Z,25.61
2022-09-07T10:53:46.747Z,25.51
2022-09-07T10:56:19.670Z,25.88
2022-09-07T10:59:01.681Z,26.09
2022-09-07T11:01:42.366Z,25.80
2022-09-07T11:04:38.443Z,25.98
2022-09-07T11:07:27.914Z,26.32
2022-09-07T11:09:59.772Z,26.12
2022-09-07T11:12:31.764Z,26.00
2022-09-07T11:15:15.844Z,26.12
2022-09-07T11:17:52.574Z,26.39
2022-09-07T11:20:28.673Z,26.56
2022-09-07T11:23:04.365Z,26.80
2022-09-07T11:25:40.449Z,26.53
2022-09-07T11:28:16.365Z,26.69
2022-09-07T11:30:49.952Z,26.78
2022-09-07T11:33:22.563Z,26.59
2022-09-07T11:35:56.598Z,26.82
2022-09-07T11:38:30.924Z,26.89
2022-09-07T11:41:12.718Z,26.40
2022-09-07T11:43:48.153Z,26.89
2022-09-07T11:46:26.432Z,26.65
2022-09-07T11:48:55.833Z,26.84
2022-09-07T11:51:29.271Z,26.81
2022-09-07T11:54:05.419Z,26.70
2022-09-07T11:56:38.582Z,26.81
2022-09-07T11:59:36.201Z,27.02
2022-09-07T12:02:28.590Z,27.23
2022-09-07T12:05:21.720Z,26.80
2022-09-07T12:08:04.010Z,27.04
2022-09-07T12:10:57.501Z,27.27
2022-09-07T12:14:02.139Z,27.36
2022-09-07T12:16:43.589Z,27.46
2022-09-07T12:19:22.588Z,27.44
2022-09-07T12:21:59.717Z,27.48
2022-09-07T12:24:40.521Z,27.34
2022-09-07T12:27:32.172Z,27.46
2022-09-07T12:30:32.735Z,27.37
2022-09-07T12:33:18.514Z,27.40
2022-09-07T12:35:45.701Z,27.35
2022-09-07T12:38:58.559Z,27.31
2022-09-07T12:41:41.489Z,27.21
2022-09-07T12:44:16.273Z,27.24
2022-09-07T12:46:53.295Z,27.21
2022-09-07T12:49:45.169Z,27.15
2022-09-07T12:52:51.912Z,27.16
2022-09-07T12:58:50.836Z,27.04
2022-09-07T13:01:45.658Z,26.98
2022-09-07T13:04:52.790Z,26.88
2022-09-07T13:07:47.753Z,26.84
2022-09-07T13:10:28.393Z,26.81
2022-09-07T13:13:05.225Z,26.71
2022-09-07T13:15:40.601Z,26.55
2022-09-07T13:18:26.917Z,26.23
2022-09-07T13:21:38.003Z,26.05
2022-09-07T13:27:31.946Z,25.65
2022-09-07T13:30:19.682Z,25.73
2022-09-07T13:35:36.445Z,25.63
2022-09-07T13:38:04.837Z,25.73
2022-09-07T13:40:38.434Z,25.84
2022-09-07T13:43:15.872Z,25.81
2022-09-07T13:46:01.798Z,25.92
2022-09-07T13:48:34.875Z,25.85
2022-09-07T13:51:09.507Z,25.80
2022-09-07T13:53:48.535Z,25.84
2022-09-07T13:56:33.606Z,25.82
2022-09-07T13:59:21.949Z,25.81
2022-09-07T14:01:51.654Z,25.74
2022-09-07T14:04:30.263Z,25.76
2022-09-07T14:07:03.823Z,25.61
2022-09-07T14:09:36.145Z,25.55
2022-09-07T14:12:13.685Z,25.58
2022-09-07T14:14:41.518Z,25.42
2022-09-07T14:17:16.852Z,25.17
2022-09-07T14:19:50.330Z,24.90
2022-09-07T14:22:20.660Z,24.78
2022-09-07T14:24:51.872Z,24.68
2022-09-07T14:27:22.064Z,24.63
2022-09-07T14:29:49.141Z,24.58
2022-09-07T14:32:19.109Z,24.39
2022-09-07T14:34:48.734Z,24.35
2022-09-07T14:37:21.217Z,24.10
2022-09-07T14:39:55.759Z,24.07
2022-09-07T14:42:24.347Z,23.98
2022-09-07T14:45:19.231Z,23.88
2022-09-07T14:47:46.937Z,23.69
2022-09-07T14:50:20.540Z,23.91
2022-09-07T14:55:43.300Z,23.90
2022-09-07T14:58:25.714Z,23.94
2022-09-07T15:03:58.623Z,23.97
2022-09-07T15:07:02.940Z,23.90
2022-09-07T15:09:37.895Z,24.00
2022-09-07T15:12:18.188Z,23.98
2022-09-07T15:14:45.393Z,24.00
2022-09-07T15:20:31.227Z,24.06
2022-09-07T15:22:58.546Z,23.57
2022-09-07T15:25:27.171Z,23.80
2022-09-07T15:27:54.301Z,23.84
2022-09-07T15:30:21.119Z,23.73
2022-09-07T15:32:49.317Z,23.79
2022-09-07T15:35:18.776Z,23.83
2022-09-07T15:38:02.406Z,23.81
2022-09-07T15:41:03.906Z,23.82
2022-09-07T15:43:29.406Z,23.83
2022-09-07T15:45:56.234Z,23.61
2022-09-07T15:48:25.929Z,23.54
2022-09-07T15:51:02.005Z,23.46
2022-09-07T15:56:28.833Z,23.08
2022-09-07T15:58:58.718Z,23.05
2022-09-07T16:04:15.024Z,22.87
2022-09-07T16:06:47.845Z,22.68
2022-09-07T16:09:21.765Z,22.60
2022-09-07T16:11:50.807Z,22.45
2022-09-07T16:14:21.387Z,22.34
2022-09-07T16:19:36.205Z,22.19
2022-09-07T16:22:03.126Z,22.28
2022-09-07T16:24:33.420Z,22.28
2022-09-07T16:27:02.575Z,22.30
2022-09-07T16:29:31.093Z,22.28
2022-09-07T16:34:55.265Z,21.75
2022-09-07T16:37:22.756Z,21.58
2022-09-07T16:39:58.312Z,21.66
2022-09-07T16:42:31.982Z,21.63
2022-09-07T16:47:51.635Z,21.51
2022-09-07T16:50:19.713Z,21.45
2022-09-07T16:52:47.419Z,21.41
2022-09-07T16:55:14.501Z,21.34
2022-09-07T17:00:34.517Z,20.93
2022-09-07T17:03:01.269Z,20.71
2022-09-07T17:05:31.577Z,20.68
2022-09-07T17:07:59.828Z,20.45
2022-09-07T17:10:27.210Z,20.44
2022-09-07T17:12:56.193Z,20.05
2022-09-07T17:15:25.433Z,19.87
2022-09-07T17:17:52.839Z,19.86
2022-09-07T17:20:21.165Z,19.50
2022-09-07T17:22:48.364Z,19.53
2022-09-07T17:25:19.405Z,19.46
2022-09-07T17:27:46.855Z,19.26
2022-09-07T17:30:17.707Z,19.00
2022-09-07T17:32:45.945Z,18.81
2022-09-07T17:35:12.725Z,18.71
2022-09-07T17:37:40.575Z,18.62
2022-09-07T17:40:09.430Z,18.52
2022-09-07T17:45:37.223Z,17.97
2022-09-07T17:48:14.506Z,17.98
2022-09-07T17:50:42.483Z,17.93
2022-09-07T17:53:10.679Z,17.89
2022-09-07T17:55:38.493Z,17.85
2022-09-07T17:58:05.474Z,17.71
2022-09-07T18:00:35.070Z,17.89
2022-09-07T18:03:08.737Z,17.97
2022-09-07T18:05:35.835Z,17.89
2022-09-07T18:08:05.133Z,17.82
2022-09-07T18:11:44.914Z,17.93
2022-09-07T18:13:33.578Z,18.02
2022-09-07T18:16:10.353Z,18.13
2022-09-07T18:18:37.462Z,17.99
2022-09-07T18:21:11.300Z,17.96
2022-09-07T18:23:38.095Z,17.88
2022-09-07T18:26:04.976Z,17.85
2022-09-07T18:31:28.570Z,17.67
2022-09-07T18:33:57.175Z,17.74
2022-09-07T18:36:25.956Z,17.69
2022-09-07T18:38:54.892Z,17.59
2022-09-07T18:41:21.945Z,17.71
2022-09-07T18:43:50.026Z,17.53
2022-09-07T18:46:23.211Z,17.62
2022-09-07T18:48:50.680Z,17.58
2022-09-07T18:51:17.991Z,17.38
2022-09-07T18:53:45.158Z,17.55
2022-09-07T18:56:14.551Z,17.63
2022-09-07T18:58:41.412Z,17.88
2022-09-07T19:01:10.080Z,17.88
2022-09-07T19:03:55.281Z,17.86
2022-09-07T19:06:25.247Z,17.90
2022-09-07T19:08:52.067Z,17.83
2022-09-07T19:11:20.863Z,17.94
2022-09-07T19:13:47.715Z,17.94
2022-09-07T19:16:19.726Z,17.97
2022-09-07T19:18:48.460Z,18.00
2022-09-07T19:21:21.699Z,17.95
2022-09-07T19:23:53.853Z,17.79
2022-09-07T19:26:30.270Z,17.69
2022-09-07T19:29:02.039Z,17.81
2022-09-07T19:32:00.010Z,17.66
2022-09-07T19:34:29.783Z,17.54
2022-09-07T19:37:06.940Z,17.59
2022-09-07T19:39:35.505Z,17.65
2022-09-07T19:42:04.862Z,17.33
2022-09-07T19:44:37.747Z,17.58
2022-09-07T19:47:05.845Z,17.63
2022-09-07T19:49:33.326Z,17.45
2022-09-07T19:52:00.262Z,17.45
2022-09-07T19:54:28.643Z,17.50
2022-09-07T19:56:55.747Z,17.49
2022-09-07T19:59:23.132Z,17.53
2022-09-07T20:01:49.967Z,17.41
2022-09-07T20:04:20.025Z,17.35
2022-09-07T20:06:48.671Z,17.32
2022-09-07T20:09:16.700Z,17.22
2022-09-07T20:11:46.706Z,17.11
2022-09-07T20:14:15.705Z,16.98
2022-09-07T20:16:43.138Z,16.93
2022-09-07T20:19:12.066Z,16.85
2022-09-07T20:21:38.957Z,16.84
2022-09-07T20:24:06.073Z,16.74
2022-09-07T20:26:32.860Z,16.76
2022-09-07T20:29:23.711Z,16.87
2022-09-07T20:31:49.373Z,16.71
2022-09-07T20:34:16.492Z,16.85
2022-09-07T20:36:43.634Z,16.84
2022-09-07T20:39:15.208Z,16.74
2022-09-07T20:41:47.840Z,16.57
2022-09-07T20:44:16.547Z,16.58
2022-09-07T20:46:44.691Z,16.66
2022-09-07T20:49:11.785Z,16.78
2022-09-07T20:51:40.965Z,16.86
2022-09-07T20:54:08.137Z,16.96
2022-09-07T20:56:35.239Z,17.01
2022-09-07T20:59:04.014Z,16.86
2022-09-07T21:01:32.880Z,16.83
2022-09-07T21:04:01.550Z,16.86
2022-09-07T21:06:29.603Z,16.89
2022-09-07T21:08:57.096Z,16.92
2022-09-07T21:11:27.595Z,16.78
2022-09-07T21:13:56.134Z,16.53
2022-09-07T21:16:24.350Z,16.61
2022-09-07T21:18:55.248Z,16.53
2022-09-07T21:21:22.517Z,16.50
2022-09-07T21:23:53.877Z,16.61
2022-09-07T21:26:21.066Z,16.45
2022-09-07T21:28:56.719Z,16.46
2022-09-07T21:31:24.051Z,16.48
2022-09-07T21:33:55.875Z,16.42
2022-09-07T21:36:23.497Z,16.49
2022-09-07T21:38:55.728Z,16.50
2022-09-07T21:41:24.752Z,16.44
2022-09-07T21:43:54.697Z,16.36
2022-09-07T21:46:21.449Z,16.26
2022-09-07T21:48:49.588Z,16.22
2022-09-07T21:51:18.267Z,16.17
2022-09-07T21:53:46.992Z,15.99
2022-09-07T21:56:14.218Z,15.91
2022-09-07T21:58:41.481Z,16.05
2022-09-07T22:01:10.124Z,16.07
2022-09-07T22:03:38.930Z,15.89
2022-09-07T22:06:05.966Z,15.79
2022-09-07T22:08:37.750Z,15.81
2022-09-07T22:11:07.223Z,15.56
2022-09-07T22:13:34.617Z,15.65
2022-09-07T22:16:02.300Z,15.52
2022-09-07T22:18:29.577Z,15.48
2022-09-07T22:21:04.784Z,15.35
2022-09-07T22:23:32.425Z,15.38
2022-09-07T22:26:00.901Z,15.51
2022-09-07T22:28:29.698Z,15.45
2022-09-07T22:31:07.462Z,15.34
2022-09-07T22:33:34.468Z,15.50
2022-09-07T22:36:15.320Z,15.38
2022-09-07T22:38:43.043Z,15.25
2022-09-07T22:41:15.250Z,15.28
2022-09-07T22:43:42.990Z,15.21
2022-09-07T22:46:10.387Z,15.12
2022-09-07T22:48:38.251Z,15.08
2022-09-07T22:51:05.895Z,15.05
2022-09-07T22:53:34.686Z,14.92
2022-09-07T22:56:08.008Z,14.94
2022-09-07T22:58:38.069Z,14.90
2022-09-07T23:01:06.371Z,14.96
2022-09-07T23:03:35.167Z,15.01
2022-09-07T23:06:03.274Z,15.00
2022-09-07T23:08:30.972Z,15.03
2022-09-07T23:11:02.746Z,15.02
2022-09-07T23:13:29.583Z,14.98
2022-09-07T23:16:02.944Z,14.99
2022-09-07T23:18:30.318Z,14.94
2022-09-07T23:21:00.403Z,14.92
2022-09-07T23:23:29.916Z,14.93
2022-09-07T23:25:56.975Z,14.70
2022-09-07T23:28:32.277Z,14.58
2022-09-07T23:31:01.722Z,14.63
2022-09-07T23:33:28.767Z,14.52
2022-09-07T23:35:58.349Z,14.32
2022-09-07T23:38:25.703Z,14.39
2022-09-07T23:40:53.439Z,14.47
2022-09-07T23:43:20.534Z,14.58
2022-09-07T23:45:47.302Z,14.71
2022-09-07T23:48:18.272Z,14.64
2022-09-07T23:50:45.734Z,14.55
2022-09-07T23:53:13.280Z,14.53
2022-09-07T23:55:41.972Z,14.55
2022-09-07T23:58:10.567Z,14.56
